LZIB Airport Information

Runway Information
Runway 04 Length 9515 ft width 197 ft
Elevation 436 ft Threshold 0 ft Heading 44
Runway 22 Length 9515 ft Width 197 ft
Elevation 430 ft Threshold 0 ft Heading 224
Runway 13 Length 10466 ft width 148 ft
Elevation 433 ft Threshold 0 ft Heading 134
Runway 31 Length 10466 ft Width 148 ft
Elevation 434 ft Threshold 777 ft Heading 314
Airport Frequencies
Type APP Name APP Frequency 120.9 MHZ
Type ATIS Name ATIS Frequency 128.65 MHZ
Type TWR Name TWR Frequency 118.3 MHZ
Airport Navaids
Type VOR-DME Name Janovce Frequency 110800 KHZ
Type NDB Name Stefanik South Frequency 330 KHZ
Type NDB Name Stefanik North Frequency 391 KHZ
Airport Weather Information & NOTAM
ADDS - METARS form results

(1333 UTC 23 February 2019)
Data provider http://aviationweather.gov/metar/data/
 
METAR text: LZIB 231330Z 33008KT CAVOK 01/M12 Q1041 NOSIG
Conditions at: LZIB (BRATISLAVA IVANK, SK) observed 1330 UTC 23 February 2019
Temperature: 1.0°C (34°F)
Dewpoint: -12.0°C (10°F) [RH = 37%]
Pressure (altimeter): 30.74 inches Hg (1041.0 mb)
Winds: from the NNW (330 degrees) at 9 MPH (8 knots; 4.1 m/s)
Visibility: 6 or more miles (10+ km)
Ceiling: ceiling and visibility are OK
Clouds: unknown
Weather: no significant weather observed at this time

METAR text: LZIB 231300Z 36006KT 320V040 CAVOK 01/M12 Q1041 NOSIG
Conditions at: LZIB (BRATISLAVA IVANK, SK) observed 1300 UTC 23 February 2019
Temperature: 1.0°C (34°F)
Dewpoint: -12.0°C (10°F) [RH = 37%]
Pressure (altimeter): 30.74 inches Hg (1041.0 mb)
Winds: from the N (360 degrees) at 7 MPH (6 knots; 3.1 m/s)
Visibility: 6 or more miles (10+ km)
Ceiling: ceiling and visibility are OK
Clouds: unknown
Weather: no significant weather observed at this time

Forecast for: LZIB (BRATISLAVA IVANK, SK)
Text: TAF LZIB 231100Z 2312/2412 01010KT CAVOK
Forecast period: 1200 UTC 23 February 2019 to 0700 UTC 24 February 2019
Forecast type: FROM: standard forecast or significant change
Winds: from the N (10 degrees) at 12 MPH (10 knots; 5.1 m/s)
Visibility: 6 or more miles 10+ km)
Ceiling: unknown
Clouds: missing
Weather: NSW  (no significant weather)
Text: TEMPO 2405/2410 VRB02KT
Forecast period: 0500 to 1000 UTC 24 February 2019
Forecast type: TEMPORARY: The following changes expected for less than half the time period
Winds: variable direction winds at 2 MPH (2 knots; 1.0 m/s)
Visibility: missing
Ceiling: unknown
Clouds: missing
Weather: no significant weather forecast for this period
Text: BECMG 2407/2409 9999 SCT040
Forecast period: 0700 to 1200 UTC 24 February 2019
Forecast type: BECOMING: Conditions expected to become as follows by 0900 UTC 24 February 2019
Winds: from the N (10 degrees) at 12 MPH (10 knots; 5.1 m/s)
Visibility: 6 or more miles 10+ km)
Ceiling: at least 12,000 feet AGL
Clouds: scattered clouds at 4000 feet AGL
Weather: NSW  (no significant weather)